• Join FlightAware (Why Join?)
  • Login
  • US Flag 
02:10AM EDT


 

Airport Tracker/Info


-or-


 

Live Flight TrackerFlight Track Log ✈ N618JB ✈ 10-Apr-2013 ✈ KEWR - TJSJ / SJU

Flight Track Log - Related Links

Times and Time Zones

All times are in EDT time to prevent confusion due to time zone crossing. See the N618JB flight status page for this flight to view local times or setup timezone preferences in your user account.

Time Position Orientation Groundspeed Altitude Reporting Facility
EDT Latitude Longitude Course Direction KTS MPH feet Rate Location/Type
09:56AM 40.7333 -74.1333 360° North 184 212 1,900  Level New York TRACON
09:57AM 40.7833 -74.1333 360° North 248 285 4,100 2,040 Climbing New York TRACON
09:58AM 40.7500 -74.2000 237° Southwest 263 303 6,000 900 Climbing New York TRACON
09:59AM 40.6667 -74.2333 197° South 277 319 6,000  Level New York TRACON
10:02AM 40.5100 -74.2594 187° South 280 322 6,000  Level New York Center
10:03AM 40.4422 -74.2261 159° South 280 322 6,000  Level New York Center
10:04AM 40.3561 -74.1836 159° South 292 336 6,000 1,020 Level New York Center
10:05AM 40.2858 -74.1639 168° South 292 336 8,100 2,400 Climbing New York Center
10:06AM 40.1939 -74.1675 182° South 292 336 10,900 1,860 Climbing New York Center
10:07AM 40.1119 -74.1172 155° Southeast 325 374 11,800 1,260 Climbing New York Center
10:08AM 40.0703 -73.9717 110° East 386 444 13,500 1,860 Climbing New York Center
10:09AM 40.0350 -73.8100 106° East 421 484 15,600 2,160 Climbing New York Center
10:10AM 39.9978 -73.6294 105° East 460 529 17,900 1,920 Climbing New York Center
10:11AM 39.9581 -73.4628 107° East 472 543 19,600 1,860 Climbing New York Center
10:12AM 39.9242 -73.2908 104° East 478 550 21,700 1,620 Climbing New York Center
10:13AM 39.8861 -73.1217 106° East 483 556 22,900 1,140 Climbing New York Center
10:14AM 39.8458 -72.9472 107° East 488 562 24,100 1,140 Climbing New York Center
10:15AM 39.8008 -72.7758 109° East 494 568 25,200 1,020 Climbing New York Center
10:16AM 39.6967 -72.6514 137° Southeast 494 568 26,200 1,020 Climbing New York Center
10:17AM 39.5817 -72.5431 144° Southeast 488 562 27,300 1,080 Climbing New York Center
10:18AM 39.4664 -72.4381 145° Southeast 500 575 28,400 1,080 Climbing New York Center
10:19AM 39.3511 -72.3358 146° Southeast 506 582 29,600 1,320 Climbing New York Center
10:20AM 39.2378 -72.2314 144° Southeast 506 582 31,000 1,080 Climbing New York Center
10:21AM 39.1094 -72.1672 135° Southeast 490 564 31,800 840 Climbing New York Center
10:22AM 38.9786 -72.1139 162° South 490 564 32,800 960 Climbing New York Center
10:23AM 38.8500 -72.0556 161° South 490 564 33,800 900 Climbing New York Center
10:24AM 38.7214 -71.9944 160° South 495 570 34,700 840 Climbing New York Center
10:25AM 38.5906 -71.9392 162° South 495 570 35,500 960 Climbing New York Center
10:26AM 38.4639 -71.8839 161° South 495 570 36,700 720 Climbing New York Center
10:27AM 38.3394 -71.8239 159° South 490 564 37,000 120 Climbing New York Center
10:28AM 38.2128 -71.7769 164° South 479 551 37,000  Level New York Center
10:29AM 38.0858 -71.7169 160° South 479 551 37,000  Level New York Center
10:30AM 37.9592 -71.6681 163° South 479 551 37,000  Level New York Center
10:31AM 37.8344 -71.6086 159° South 479 551 37,000  Level New York Center
10:32AM 37.7056 -71.5519 161° South 479 551 37,000  Level New York Center
10:33AM 37.5828 -71.4956 160° South 479 551 37,000  Level New York Center
10:34AM 37.4517 -71.4497 164° South 479 551 37,000  Level New York Center
10:35AM 37.3561 -71.3756 148° Southeast 484 557 37,000  Level New York Center
10:36AM 37.2147 -71.3014 157° South 479 551 37,000 -60 Level New York Center
10:37AM 37.1169 -71.2433 155° Southeast 485 558 36,900  Descending New York Center
10:39AM 36.9056 -71.0936 155° Southeast  Level FlightAware Approximate
10:46AM 36.1029 -70.6327 155° Southeast  Level FlightAware Approximate
10:47AM 35.9881 -70.5676 155° Southeast  Level FlightAware Approximate
10:48AM 35.8732 -70.5027 155° Southeast  Level FlightAware Approximate
10:49AM 35.7583 -70.4380 155° Southeast  Level FlightAware Approximate
10:49AM 35.7667 -70.4500 168° South 469 540 37,000  Level New York Oceanic (ODAPS)
10:50AM 35.6355 -70.4030 168° South  Level FlightAware Approximate
10:51AM 35.5120 -70.3703 168° South  Level FlightAware Approximate
10:52AM 35.3886 -70.3377 168° South  Level FlightAware Approximate
10:53AM 35.2651 -70.3053 168° South  Level FlightAware Approximate
10:54AM 35.1416 -70.2729 168° South  Level FlightAware Approximate
10:55AM 34.7431 -70.1822 168° South 469 540 37,000  Level FlightAware Transoceanic
10:56AM 34.6151 -70.1492 168° South 469 540 37,000  Level FlightAware Transoceanic
10:57AM 34.4871 -70.1163 168° South 469 540 37,000  Level FlightAware Transoceanic
10:58AM 34.3591 -70.0835 168° South 469 540 37,000  Level FlightAware Transoceanic
10:59AM 34.2311 -70.0508 168° South 469 540 37,000  Level FlightAware Transoceanic
11:00AM 34.1031 -70.0182 168° South 469 540 37,000  Level FlightAware Transoceanic
11:01AM 33.9751 -69.9857 168° South 469 540 37,000  Level FlightAware Transoceanic
11:02AM 33.8470 -69.9533 168° South 469 540 37,000  Level FlightAware Transoceanic
11:03AM 33.7190 -69.9210 168° South 469 540 37,000  Level FlightAware Transoceanic
11:04AM 33.5910 -69.8888 168° South 469 540 37,000  Level FlightAware Transoceanic
11:05AM 33.4629 -69.8567 168° South 469 540 37,000  Level FlightAware Transoceanic
11:06AM 33.3348 -69.8247 168° South 469 540 37,000  Level FlightAware Transoceanic
11:07AM 33.2067 -69.7927 168° South 469 540 37,000  Level FlightAware Transoceanic
11:08AM 33.0787 -69.7609 168° South 469 540 37,000  Level FlightAware Transoceanic
11:09AM 32.9506 -69.7292 168° South 469 540 37,000  Level FlightAware Transoceanic
11:10AM 32.8224 -69.6975 168° South 469 540 37,000  Level FlightAware Transoceanic
11:11AM 32.6943 -69.6660 168° South 469 540 37,000  Level FlightAware Transoceanic
11:12AM 32.5662 -69.6345 168° South 469 540 37,000  Level FlightAware Transoceanic
11:13AM 32.4381 -69.6031 168° South 469 540 37,000  Level FlightAware Transoceanic
11:14AM 32.3100 -69.5718 168° South 469 540 37,000  Level FlightAware Transoceanic
11:15AM 32.1818 -69.5406 168° South 469 540 37,000  Level FlightAware Transoceanic
11:16AM 32.0537 -69.5095 168° South 469 540 37,000  Level FlightAware Transoceanic
11:17AM 31.9255 -69.4785 168° South 469 540 37,000  Level FlightAware Transoceanic
11:18AM 31.7973 -69.4475 168° South 469 540 37,000  Level FlightAware Transoceanic
11:19AM 31.6692 -69.4167 168° South 469 540 37,000  Level FlightAware Transoceanic
11:20AM 31.5410 -69.3859 168° South 469 540 37,000  Level FlightAware Transoceanic
11:21AM 31.4128 -69.3552 168° South 469 540 37,000  Level FlightAware Transoceanic
11:22AM 31.2846 -69.3246 168° South 469 540 37,000  Level FlightAware Transoceanic
11:23AM 31.1564 -69.2941 169° South 469 540 37,000  Level FlightAware Transoceanic
11:24AM 31.0282 -69.2637 169° South 469 540 37,000  Level FlightAware Transoceanic
11:25AM 30.9000 -69.2333 168° South 469 540 37,000  Level FlightAware Transoceanic
11:26AM 30.7675 -69.2018 168° South 469 540 37,000  Level FlightAware Transoceanic
11:26AM 30.9000 -69.2333 168° South 471 542 37,000  Level New York Oceanic (ODAPS)
11:27AM 30.6350 -69.1703 168° South 469 540 37,000  Level FlightAware Transoceanic
11:28AM 30.5025 -69.1390 168° South 469 540 37,000  Level FlightAware Transoceanic
11:29AM 30.3699 -69.1077 169° South 469 540 37,000  Level FlightAware Transoceanic
11:30AM 30.2374 -69.0765 169° South 469 540 37,000  Level FlightAware Transoceanic
11:31AM 30.1049 -69.0453 169° South 469 540 37,000  Level FlightAware Transoceanic
11:32AM 29.9905 -69.0186 169° South 471 542 37,000  Level FlightAware Transoceanic
11:33AM 29.8606 -68.9882 169° South 471 542 37,000  Level FlightAware Transoceanic
11:34AM 29.7306 -68.9579 169° South 471 542 37,000  Level FlightAware Transoceanic
11:35AM 29.6006 -68.9277 169° South 471 542 37,000  Level FlightAware Transoceanic
11:36AM 29.4707 -68.8976 169° South 471 542 37,000  Level FlightAware Transoceanic
11:37AM 29.3407 -68.8676 169° South 471 542 37,000  Level FlightAware Transoceanic
11:38AM 29.2107 -68.8376 169° South 471 542 37,000  Level FlightAware Transoceanic
11:39AM 29.0807 -68.8077 169° South 471 542 37,000  Level FlightAware Transoceanic
11:40AM 28.9507 -68.7779 169° South 471 542 37,000  Level FlightAware Transoceanic
11:41AM 28.8207 -68.7482 169° South 471 542 37,000  Level FlightAware Transoceanic
11:42AM 28.6907 -68.7185 169° South 471 542 37,000  Level FlightAware Transoceanic
11:43AM 28.5607 -68.6889 169° South 471 542 37,000  Level FlightAware Transoceanic
11:44AM 28.4306 -68.6594 169° South 471 542 37,000  Level FlightAware Transoceanic
11:45AM 28.3006 -68.6299 169° South 471 542 37,000  Level FlightAware Transoceanic
11:46AM 28.1706 -68.6005 169° South 471 542 37,000  Level FlightAware Transoceanic
11:47AM 28.0405 -68.5712 169° South 471 542 37,000  Level FlightAware Transoceanic
11:48AM 27.9105 -68.5420 169° South 471 542 37,000  Level FlightAware Transoceanic
11:49AM 27.7804 -68.5128 169° South 471 542 37,000  Level FlightAware Transoceanic
11:50AM 27.6503 -68.4837 169° South 471 542 37,000  Level FlightAware Transoceanic
11:50AM 27.9333 -68.5333 169° South 474 545 37,000  Level New York Oceanic (ODAPS)
11:51AM 27.5203 -68.4547 169° South 471 542 37,000  Level FlightAware Transoceanic
11:52AM 27.3902 -68.4258 169° South 471 542 37,000  Level FlightAware Transoceanic
11:53AM 27.2601 -68.3969 169° South 471 542 37,000  Level FlightAware Transoceanic
11:54AM 27.1300 -68.3680 169° South 471 542 37,000  Level FlightAware Transoceanic
11:55AM 26.9999 -68.3393 169° South 471 542 37,000  Level FlightAware Transoceanic
11:56AM 26.8698 -68.3106 169° South 471 542 37,000  Level FlightAware Transoceanic
11:57AM 26.7552 -68.2761 169° South 474 545 37,000  Level FlightAware Transoceanic
11:58AM 26.6243 -68.2479 169° South 474 545 37,000  Level FlightAware Transoceanic
11:59AM 26.4934 -68.2197 169° South 474 545 37,000  Level FlightAware Transoceanic
12:00PM 26.3624 -68.1916 169° South 474 545 37,000  Level FlightAware Transoceanic
12:01PM 26.2315 -68.1635 169° South 474 545 37,000  Level FlightAware Transoceanic
12:02PM 26.1005 -68.1355 169° South 474 545 37,000  Level FlightAware Transoceanic
12:03PM 25.9696 -68.1076 169° South 474 545 37,000  Level FlightAware Transoceanic
12:04PM 25.8386 -68.0797 169° South 474 545 37,000  Level FlightAware Transoceanic
12:05PM 25.7076 -68.0519 169° South 474 545 37,000  Level FlightAware Transoceanic
12:06PM 25.5767 -68.0242 169° South 474 545 37,000  Level FlightAware Transoceanic
12:07PM 25.4457 -67.9965 169° South 474 545 37,000  Level FlightAware Transoceanic
12:07PM 25.4667 -68.0000 169° South 473 544 37,000  Level New York Oceanic (ODAPS)
12:08PM 25.3147 -67.9689 169° South 474 545 37,000  Level FlightAware Transoceanic
12:09PM 25.1837 -67.9413 169° South 474 545 37,000  Level FlightAware Transoceanic
12:10PM 25.0527 -67.9138 169° South 474 545 37,000  Level FlightAware Transoceanic
12:11PM 24.9217 -67.8864 169° South 474 545 37,000  Level FlightAware Transoceanic
12:12PM 24.7907 -67.8590 169° South 474 545 37,000  Level FlightAware Transoceanic
12:13PM 24.5334 -67.8051 169° South 473 544 37,000  Level FlightAware Transoceanic
12:14PM 24.4000 -67.7775 169° South 473 544 37,000  Level FlightAware Transoceanic
12:15PM 24.2667 -67.7500 169° South 473 544 37,000  Level FlightAware Transoceanic
12:16PM 24.1405 -67.7233 169° South 473 544 37,000  Level FlightAware Transoceanic
12:17PM 24.0144 -67.6967 169° South 473 544 37,000  Level FlightAware Transoceanic
12:18PM 23.8882 -67.6701 169° South 473 544 37,000  Level FlightAware Transoceanic
12:19PM 23.7621 -67.6435 169° South 473 544 37,000  Level FlightAware Transoceanic
12:20PM 23.6359 -67.6171 169° South 473 544 37,000  Level FlightAware Transoceanic
12:20PM 23.6167 -67.6000 169° South 480 552 37,000  Level San Juan Center
12:21PM 23.5097 -67.5906 169° South 473 544 37,000  Level FlightAware Transoceanic
12:21PM 23.4833 -67.5833 173° South 480 552 37,000  Level San Juan Center
12:22PM 23.3836 -67.5642 169° South 473 544 37,000  Level FlightAware Transoceanic
12:22PM 23.3500 -67.5500 167° South 480 552 37,000  Level San Juan Center
12:23PM 23.2574 -67.5379 169° South 473 544 37,000  Level FlightAware Transoceanic
12:23PM 23.2333 -67.5167 165° South 480 552 37,000  Level San Juan Center
12:24PM 23.1312 -67.5116 169° South 473 544 37,000  Level FlightAware Transoceanic
12:24PM 23.0833 -67.5000 174° South 480 552 37,000  Level San Juan Center
12:25PM 23.0050 -67.4854 169° South 473 544 37,000  Level FlightAware Transoceanic
12:25PM 22.9667 -67.4667 165° South 480 552 37,000  Level San Juan Center
12:26PM 22.8788 -67.4592 169° South 473 544 37,000  Level FlightAware Transoceanic
12:26PM 22.8333 -67.4333 167° South 470 541 37,000  Level San Juan Center
12:27PM 22.7000 -67.4167 173° South 480 552 37,000  Level San Juan Center
12:28PM 22.5667 -67.3833 167° South 480 552 37,000  Level San Juan Center
12:29PM 22.4333 -67.3667 173° South 480 552 37,000  Level San Juan Center
12:30PM 22.3000 -67.3333 167° South 480 552 37,000  Level San Juan Center
12:31PM 22.1667 -67.3000 167° South 480 552 37,000  Level San Juan Center
12:32PM 22.2333 -67.3167 170° South 443 510 37,000  Level New York Oceanic (ODAPS)
12:33PM 21.9167 -67.2500 170° South 470 541 37,000  Level San Juan Center
12:34PM 21.7833 -67.2333 173° South 470 541 37,000  Level San Juan Center
12:35PM 21.6500 -67.2000 167° South 480 552 37,000  Level San Juan Center
12:36PM 21.5167 -67.1667 167° South 480 552 37,000  Level San Juan Center
12:37PM 21.3833 -67.1500 173° South 480 552 37,000  Level San Juan Center
12:38PM 21.2500 -67.1167 167° South 480 552 37,000  Level San Juan Center
12:39PM 21.1167 -67.0833 167° South 480 552 37,000  Level San Juan Center
12:40PM 20.9833 -67.0500 167° South 480 552 37,000  Level San Juan Center
12:41PM 20.8667 -67.0167 165° South 480 552 37,000  Level San Juan Center
12:42PM 20.7333 -66.9833 167° South 480 552 37,000  Level San Juan Center
12:43PM 20.6000 -66.9500 167° South 490 564 37,000  Level San Juan Center
12:44PM 20.4667 -66.9167 167° South 490 564 37,000  Level San Juan Center
12:45PM 20.3333 -66.8833 167° South 480 552 37,000 -180 Level San Juan Center
12:46PM 20.2000 -66.8500 167° South 480 552 36,700 -1,260 Descending San Juan Center
12:48PM 20.0667 -66.8167 167° South 480 552 34,500 -2,520 Descending San Juan Center
12:49PM 19.9500 -66.7667 158° South 490 564 31,700 -2,700 Descending San Juan Center
12:50PM 19.8167 -66.7000 155° Southeast 490 564 29,200 -2,880 Descending San Juan Center
12:51PM 19.7000 -66.6333 152° Southeast 500 575 26,000 -3,480 Descending San Juan Center
12:52PM 19.5667 -66.5667 155° Southeast 500 575 22,300 -3,420 Descending San Juan Center
12:53PM 19.4500 -66.5000 152° Southeast 490 564 19,200 -3,480 Descending San Juan Center
12:54PM 19.3333 -66.4500 158° South 460 529 15,400 -3,720 Descending San Juan Center
12:55PM 19.2333 -66.3833 148° Southeast 410 472 11,700 -2,400 Descending San Juan Center
12:56PM 19.1333 -66.3500 163° South 340 391 10,600 -1,080 Descending San Juan Center
12:57PM 19.0500 -66.3167 159° South 310 357 9,600 -1,320 Descending San Juan Center
12:58PM 18.9667 -66.3000 169° South 290 334 8,000 -1,440 Descending San Juan Center
12:59PM 18.8833 -66.2833 169° South 280 322 6,800 -1,140 Descending San Juan Center
01:00PM 18.8167 -66.2667 167° South 270 311 5,800 -960 Descending San Juan Center
01:01PM 18.7333 -66.2500 169° South 270 311 4,900 -900 Descending San Juan Center
01:02PM 18.6667 -66.2167 155° Southeast 260 299 4,100 -780 Descending San Juan Center
01:03PM 18.6000 -66.2000 167° South 260 299 3,400 -900 Descending San Juan Center
01:04PM 18.5333 -66.1667 155° Southeast 250 288 2,400 -720 Descending San Juan Center
01:05PM 18.4667 -66.1500 167° South 220 253 2,000 -360 Descending San Juan Center
01:06PM 18.4333 -66.1333 155° Southeast 150 173 1,700 -300 Descending San Juan Center
01:07PM 18.4333 -66.0833 90° East 150 173 1,400 -540 Descending San Juan Center
01:08PM 18.4333 -66.0500 90° East 110 127 700 -720 Descending San Juan Center